createdAt,value
2022-08-19T00:02:00.824Z,2.70
2022-08-19T00:04:31.384Z,2.25
2022-08-19T00:06:59.540Z,2.83
2022-08-19T00:09:27.065Z,3.00
2022-08-19T00:11:56.543Z,2.33
2022-08-19T00:14:25.042Z,3.92
2022-08-19T00:16:55.574Z,2.78
2022-08-19T00:19:23.372Z,4.85
2022-08-19T00:21:50.211Z,3.65
2022-08-19T00:24:17.061Z,2.90
2022-08-19T00:26:46.364Z,3.13
2022-08-19T00:29:15.280Z,3.75
2022-08-19T00:31:44.064Z,4.63
2022-08-19T00:34:12.204Z,4.97
2022-08-19T00:36:38.883Z,3.75
2022-08-19T00:39:05.870Z,4.50
2022-08-19T00:41:32.634Z,2.42
2022-08-19T00:44:29.948Z,3.38
2022-08-19T00:46:59.946Z,3.00
2022-08-19T00:49:37.287Z,2.28
2022-08-19T00:52:15.041Z,2.53
2022-08-19T00:54:42.388Z,3.28
2022-08-19T00:57:13.730Z,3.25
2022-08-19T00:59:56.191Z,4.00
2022-08-19T01:02:29.088Z,3.58
2022-08-19T01:04:56.368Z,3.65
2022-08-19T01:07:23.083Z,3.17
2022-08-19T01:09:50.587Z,2.30
2022-08-19T01:12:18.606Z,3.67
2022-08-19T01:14:46.320Z,3.50
2022-08-19T01:17:14.222Z,3.17
2022-08-19T01:19:44.018Z,2.40
2022-08-19T01:22:30.017Z,3.33
2022-08-19T01:24:57.560Z,2.45
2022-08-19T01:27:25.918Z,2.40
2022-08-19T01:29:52.545Z,5.38
2022-08-19T01:32:32.514Z,3.17
2022-08-19T01:35:03.085Z,2.40
2022-08-19T01:37:31.492Z,2.28
2022-08-19T01:39:58.545Z,1.98
2022-08-19T01:42:30.063Z,2.17
2022-08-19T01:44:57.577Z,2.13
2022-08-19T01:47:24.140Z,2.20
2022-08-19T01:49:50.629Z,4.72
2022-08-19T01:52:17.161Z,3.00
2022-08-19T01:54:43.659Z,2.95
2022-08-19T01:57:13.554Z,2.33
2022-08-19T01:59:42.318Z,3.40
2022-08-19T02:02:09.440Z,4.68
2022-08-19T02:04:36.657Z,3.60
2022-08-19T02:07:03.576Z,2.42
2022-08-19T02:09:31.984Z,4.40
2022-08-19T02:11:58.570Z,2.50
2022-08-19T02:14:25.255Z,2.58
2022-08-19T02:16:51.991Z,2.40
2022-08-19T02:19:18.516Z,3.33
2022-08-19T02:21:45.043Z,2.83
2022-08-19T02:24:11.618Z,4.75
2022-08-19T02:26:38.113Z,2.45
2022-08-19T02:29:05.181Z,2.65
2022-08-19T02:31:31.724Z,2.45
2022-08-19T02:33:58.369Z,2.97
2022-08-19T02:36:26.455Z,3.40
2022-08-19T02:38:54.864Z,2.33
2022-08-19T02:41:33.872Z,2.33
2022-08-19T02:44:30.052Z,2.67
2022-08-19T02:46:51.609Z,2.53
2022-08-19T02:49:18.970Z,3.78
2022-08-19T02:51:46.812Z,3.15
2022-08-19T02:54:14.333Z,3.08
2022-08-19T02:56:42.572Z,3.03
2022-08-19T02:59:12.880Z,2.00
2022-08-19T03:01:42.111Z,2.45
2022-08-19T03:04:11.217Z,2.20
2022-08-19T03:06:46.341Z,4.80
2022-08-19T03:09:13.768Z,2.40
2022-08-19T03:11:40.592Z,2.63
2022-08-19T03:14:09.257Z,1.92
2022-08-19T03:16:42.607Z,4.18
2022-08-19T03:19:09.460Z,2.67
2022-08-19T03:21:36.291Z,5.10
2022-08-19T03:24:07.324Z,3.60
2022-08-19T03:26:35.121Z,2.20
2022-08-19T03:29:05.996Z,3.50
2022-08-19T03:31:43.319Z,4.70
2022-08-19T03:34:27.422Z,4.18
2022-08-19T03:36:56.451Z,3.45
2022-08-19T03:39:24.431Z,2.33
2022-08-19T03:42:32.306Z,2.72
2022-08-19T03:44:39.841Z,3.10
2022-08-19T03:47:06.595Z,3.40
2022-08-19T03:49:36.163Z,2.33
2022-08-19T03:52:06.017Z,3.25
2022-08-19T03:54:32.809Z,3.05
2022-08-19T03:56:59.418Z,2.25
2022-08-19T03:59:37.231Z,2.47
2022-08-19T04:02:10.085Z,2.30
2022-08-19T04:04:39.211Z,3.88
2022-08-19T04:07:05.730Z,4.55
2022-08-19T04:09:34.675Z,2.33
2022-08-19T04:12:01.200Z,2.55
2022-08-19T04:14:31.350Z,2.50
2022-08-19T04:17:04.090Z,3.15
2022-08-19T04:19:31.433Z,2.33
2022-08-19T04:21:58.326Z,3.40
2022-08-19T04:24:24.932Z,2.88
2022-08-19T04:26:52.453Z,2.47
2022-08-19T04:29:22.918Z,2.08
2022-08-19T04:31:50.080Z,2.38
2022-08-19T04:34:18.741Z,3.10
2022-08-19T04:36:45.829Z,3.53
2022-08-19T04:39:16.703Z,2.95
2022-08-19T04:42:02.837Z,5.80
2022-08-19T04:44:31.625Z,2.70
2022-08-19T04:47:00.449Z,2.95
2022-08-19T04:49:28.440Z,3.35
2022-08-19T04:51:55.420Z,4.82
2022-08-19T04:54:37.843Z,2.75
2022-08-19T04:57:10.730Z,2.42
2022-08-19T04:59:39.347Z,2.78
2022-08-19T05:02:07.521Z,5.78
2022-08-19T05:04:34.660Z,4.18
2022-08-19T05:07:04.655Z,3.28
2022-08-19T05:09:55.425Z,3.33
2022-08-19T05:12:19.099Z,3.25
2022-08-19T05:14:47.692Z,3.45
2022-08-19T05:17:27.685Z,3.63
2022-08-19T05:20:14.138Z,10.55
2022-08-19T05:22:42.019Z,2.75
2022-08-19T05:25:13.512Z,3.17
2022-08-19T05:27:41.505Z,3.90
2022-08-19T05:30:08.889Z,3.78
2022-08-19T05:32:35.891Z,2.22
2022-08-19T05:35:02.430Z,3.70
2022-08-19T05:37:29.708Z,2.88
2022-08-19T05:39:56.753Z,5.28
2022-08-19T05:42:24.189Z,4.45
2022-08-19T05:44:51.571Z,4.05
2022-08-19T05:47:20.817Z,2.00
2022-08-19T05:49:47.848Z,3.22
2022-08-19T05:52:19.453Z,7.25
2022-08-19T05:54:52.139Z,4.38
2022-08-19T05:57:21.574Z,4.70
2022-08-19T05:59:49.414Z,3.03
2022-08-19T06:02:20.380Z,4.00
2022-08-19T06:04:47.209Z,5.65
2022-08-19T06:07:13.766Z,7.88
2022-08-19T06:09:40.903Z,4.78
2022-08-19T06:12:08.149Z,7.78
2022-08-19T06:14:40.158Z,16.95
2022-08-19T06:17:08.257Z,9.93
2022-08-19T06:19:35.027Z,17.98
2022-08-19T06:22:08.442Z,17.17
2022-08-19T06:24:36.216Z,20.50
2022-08-19T06:27:03.698Z,21.33
2022-08-19T06:29:31.165Z,9.57
2022-08-19T06:32:00.766Z,20.55
2022-08-19T06:34:29.246Z,23.08
2022-08-19T06:36:57.345Z,35.40
2022-08-19T06:39:26.644Z,52.05
2022-08-19T06:41:58.924Z,30.85
2022-08-19T06:44:28.087Z,24.15
2022-08-19T06:46:57.281Z,59.60
2022-08-19T06:49:26.068Z,89.22
2022-08-19T06:51:52.642Z,60.55
2022-08-19T06:54:20.507Z,58.47
2022-08-19T06:56:47.702Z,39.70
2022-08-19T06:59:17.601Z,41.85
2022-08-19T07:01:52.876Z,40.70
2022-08-19T07:04:26.260Z,53.67
2022-08-19T07:07:19.740Z,37.42
2022-08-19T07:09:57.124Z,52.65
2022-08-19T07:12:28.370Z,46.60
2022-08-19T07:14:56.759Z,74.20
2022-08-19T07:17:24.454Z,61.08
2022-08-19T07:19:51.596Z,53.05
2022-08-19T07:22:23.887Z,65.78
2022-08-19T07:24:52.428Z,66.30
2022-08-19T07:27:24.762Z,71.32
2022-08-19T07:29:55.731Z,35.63
2022-08-19T07:32:27.883Z,61.17
2022-08-19T07:34:55.092Z,51.60
2022-08-19T07:37:23.531Z,43.50
2022-08-19T07:39:50.202Z,53.92
2022-08-19T07:42:18.147Z,55.03
2022-08-19T07:44:50.185Z,53.33
2022-08-19T07:47:49.996Z,68.90
2022-08-19T07:50:07.777Z,64.63
2022-08-19T07:52:35.220Z,46.17
2022-08-19T07:55:04.716Z,61.60
2022-08-19T07:57:31.332Z,57.42
2022-08-19T07:59:57.896Z,60.47
2022-08-19T08:02:24.514Z,44.42
2022-08-19T08:05:09.698Z,45.40
2022-08-19T08:07:55.187Z,56.35
2022-08-19T08:10:21.764Z,62.92
2022-08-19T08:13:08.961Z,40.67
2022-08-19T08:15:42.217Z,30.25
2022-08-19T08:18:09.681Z,18.70
2022-08-19T08:20:36.311Z,48.22
2022-08-19T08:23:21.967Z,57.35
2022-08-19T08:25:50.091Z,40.33
2022-08-19T08:28:18.131Z,47.58
2022-08-19T08:30:49.031Z,50.65
2022-08-19T08:33:28.515Z,31.33
2022-08-19T08:36:02.025Z,20.23
2022-08-19T08:38:39.055Z,43.55
2022-08-19T08:41:22.251Z,38.50
2022-08-19T08:43:52.991Z,31.83
2022-08-19T08:46:39.380Z,35.03
2022-08-19T08:49:27.487Z,19.73
2022-08-19T08:52:06.003Z,36.75
2022-08-19T08:54:41.055Z,38.40
2022-08-19T08:57:23.518Z,33.22
2022-08-19T08:59:56.023Z,34.92
2022-08-19T09:02:23.071Z,26.98
2022-08-19T09:04:50.651Z,34.05
2022-08-19T09:07:54.414Z,32.42
2022-08-19T09:10:44.261Z,30.38
2022-08-19T09:13:28.637Z,23.70
2022-08-19T09:16:02.556Z,27.30
2022-08-19T09:18:53.048Z,25.45
2022-08-19T09:21:33.057Z,21.63
2022-08-19T09:24:00.635Z,26.65
2022-08-19T09:26:47.614Z,32.25
2022-08-19T09:29:15.621Z,21.25
2022-08-19T09:31:44.321Z,27.05
2022-08-19T09:34:21.693Z,27.65
2022-08-19T09:36:54.311Z,33.95
2022-08-19T09:39:23.259Z,30.10
2022-08-19T09:41:51.047Z,29.75
2022-08-19T09:44:18.990Z,25.55
2022-08-19T09:46:48.166Z,26.73
2022-08-19T09:49:22.805Z,22.15
2022-08-19T09:51:52.638Z,25.77
2022-08-19T09:54:23.854Z,21.83
2022-08-19T09:56:52.563Z,21.95
2022-08-19T09:59:19.450Z,25.67
2022-08-19T10:01:46.239Z,24.13
2022-08-19T10:04:19.758Z,22.60
2022-08-19T10:06:48.686Z,23.48
2022-08-19T10:09:26.302Z,28.63
2022-08-19T10:12:02.502Z,31.65
2022-08-19T10:14:29.574Z,19.42
2022-08-19T10:16:59.086Z,29.85
2022-08-19T10:19:26.440Z,28.30
2022-08-19T10:21:55.691Z,23.90
2022-08-19T10:24:28.778Z,21.90
2022-08-19T10:26:58.838Z,27.80
2022-08-19T10:29:31.952Z,28.67
2022-08-19T10:32:02.790Z,31.60
2022-08-19T10:34:31.715Z,24.85
2022-08-19T10:37:01.665Z,31.27
2022-08-19T10:39:31.351Z,13.85
2022-08-19T10:41:58.827Z,22.73
2022-08-19T10:44:31.956Z,19.25
2022-08-19T10:47:00.567Z,26.77
2022-08-19T10:49:28.015Z,26.08
2022-08-19T10:52:32.390Z,21.75
2022-08-19T10:55:22.144Z,38.20
2022-08-19T10:58:04.377Z,21.42
2022-08-19T11:00:32.561Z,29.92
2022-08-19T11:02:59.316Z,27.20
2022-08-19T11:05:25.915Z,36.08
2022-08-19T11:07:53.140Z,26.17
2022-08-19T11:10:21.820Z,26.00
2022-08-19T11:12:49.274Z,23.70
2022-08-19T11:15:16.261Z,39.33
2022-08-19T11:17:44.720Z,27.50
2022-08-19T11:20:13.354Z,32.63
2022-08-19T11:22:41.799Z,31.48
2022-08-19T11:25:10.365Z,24.45
2022-08-19T11:27:43.895Z,26.45
2022-08-19T11:30:13.576Z,28.60
2022-08-19T11:32:47.132Z,36.03
2022-08-19T11:35:16.973Z,31.75
2022-08-19T11:37:43.750Z,20.58
2022-08-19T11:40:11.126Z,16.08
2022-08-19T11:42:56.640Z,27.67
2022-08-19T11:45:24.853Z,27.85
2022-08-19T11:47:51.573Z,16.83
2022-08-19T11:50:18.937Z,30.25
2022-08-19T11:52:46.625Z,19.02
2022-08-19T11:55:15.218Z,25.50
2022-08-19T11:57:42.317Z,15.93
2022-08-19T12:00:10.842Z,20.27
2022-08-19T12:02:37.684Z,28.80
2022-08-19T12:05:07.924Z,23.50
2022-08-19T12:07:36.940Z,17.33
2022-08-19T12:10:04.168Z,30.67
2022-08-19T12:12:30.882Z,28.98
2022-08-19T12:14:59.348Z,15.02
2022-08-19T12:17:29.754Z,31.52
2022-08-19T12:19:59.108Z,15.65
2022-08-19T12:22:25.730Z,27.00
2022-08-19T12:24:54.242Z,24.58
2022-08-19T12:27:35.689Z,15.77
2022-08-19T12:30:12.478Z,16.27
2022-08-19T12:32:39.961Z,13.65
2022-08-19T12:35:07.999Z,12.00
2022-08-19T12:37:35.081Z,11.32
2022-08-19T12:40:02.185Z,20.27
2022-08-19T12:42:29.017Z,22.13
2022-08-19T12:44:56.018Z,18.05
2022-08-19T12:47:22.995Z,14.50
2022-08-19T12:49:53.954Z,13.65
2022-08-19T12:52:26.648Z,18.33
2022-08-19T12:54:55.739Z,11.55
2022-08-19T12:57:31.895Z,15.18
2022-08-19T12:59:59.198Z,8.77
2022-08-19T13:02:25.745Z,14.68
2022-08-19T13:04:52.245Z,8.77
2022-08-19T13:07:18.809Z,16.90
2022-08-19T13:09:45.691Z,14.82
2022-08-19T13:12:14.405Z,9.98
2022-08-19T13:14:41.420Z,11.88
2022-08-19T13:17:09.309Z,11.55
2022-08-19T13:19:37.915Z,13.68
2022-08-19T13:22:04.620Z,11.90
2022-08-19T13:24:41.958Z,15.40
2022-08-19T13:27:11.797Z,11.80
2022-08-19T13:29:58.936Z,13.05
2022-08-19T13:32:43.790Z,10.90
2022-08-19T13:35:16.218Z,8.85
2022-08-19T13:37:43.751Z,10.40
2022-08-19T13:40:19.286Z,13.55
2022-08-19T13:42:48.689Z,13.02
2022-08-19T13:45:21.798Z,8.98
2022-08-19T13:47:50.065Z,11.18
2022-08-19T13:50:19.608Z,7.95
2022-08-19T13:52:48.413Z,7.38
2022-08-19T13:55:16.638Z,9.52
2022-08-19T13:57:52.933Z,12.68
2022-08-19T14:00:20.454Z,18.13
2022-08-19T14:02:48.558Z,13.40
2022-08-19T14:05:16.990Z,21.50
2022-08-19T14:07:43.769Z,11.35
2022-08-19T14:10:12.423Z,10.30
2022-08-19T14:12:40.111Z,5.38
2022-08-19T14:15:08.606Z,7.53
2022-08-19T14:17:37.975Z,7.85
2022-08-19T14:20:11.258Z,6.13
2022-08-19T14:22:45.390Z,6.97
2022-08-19T14:25:15.571Z,6.95
2022-08-19T14:27:42.801Z,8.00
2022-08-19T14:30:12.629Z,6.28
2022-08-19T14:32:39.219Z,5.68
2022-08-19T14:35:08.189Z,6.30
2022-08-19T14:37:37.264Z,5.82
2022-08-19T14:40:14.532Z,5.60
2022-08-19T14:42:41.964Z,3.60
2022-08-19T14:45:09.522Z,5.18
2022-08-19T14:47:36.114Z,5.05
2022-08-19T14:50:18.023Z,4.60
2022-08-19T14:52:49.339Z,4.05
2022-08-19T14:55:19.175Z,5.18
2022-08-19T14:57:45.979Z,5.82
2022-08-19T15:00:15.866Z,3.97
2022-08-19T15:02:45.309Z,3.30
2022-08-19T15:05:13.250Z,3.47
2022-08-19T15:07:40.593Z,2.95
2022-08-19T15:10:08.700Z,4.03
2022-08-19T15:12:36.536Z,3.17
2022-08-19T15:15:03.788Z,2.72
2022-08-19T15:17:43.593Z,2.85
2022-08-19T15:20:16.379Z,2.85
2022-08-19T15:22:43.271Z,3.17
2022-08-19T15:25:12.529Z,2.47
2022-08-19T15:27:41.578Z,3.55
2022-08-19T15:30:09.832Z,4.78
2022-08-19T15:32:37.378Z,3.00
2022-08-19T15:35:06.089Z,4.93
2022-08-19T15:37:34.524Z,7.68
2022-08-19T15:40:07.576Z,5.30
2022-08-19T15:42:36.320Z,3.22
2022-08-19T15:45:04.144Z,2.65
2022-08-19T15:47:34.683Z,8.00
2022-08-19T15:50:11.114Z,6.93
2022-08-19T15:52:52.295Z,7.40
2022-08-19T15:55:33.820Z,3.03
2022-08-19T15:58:28.411Z,6.20
2022-08-19T16:01:14.820Z,6.45
2022-08-19T16:03:59.679Z,4.10
2022-08-19T16:06:26.401Z,7.68
2022-08-19T16:08:54.974Z,4.20
2022-08-19T16:11:23.444Z,6.40
2022-08-19T16:13:52.718Z,4.60
2022-08-19T16:16:20.187Z,3.90
2022-08-19T16:18:47.347Z,3.08
2022-08-19T16:21:17.262Z,5.35
2022-08-19T16:23:48.158Z,4.45
2022-08-19T16:26:16.479Z,5.65
2022-08-19T16:28:43.917Z,9.10
2022-08-19T16:31:12.063Z,3.75
2022-08-19T16:33:38.644Z,5.30
2022-08-19T16:36:07.271Z,12.93
2022-08-19T16:38:34.925Z,10.38
2022-08-19T16:41:01.751Z,9.13
2022-08-19T16:43:30.566Z,3.85
2022-08-19T16:45:57.863Z,7.45
2022-08-19T16:48:29.778Z,2.97
2022-08-19T16:50:57.519Z,10.15
2022-08-19T16:53:29.097Z,4.70
2022-08-19T16:55:59.238Z,3.67
2022-08-19T16:58:28.152Z,4.47
2022-08-19T17:00:59.595Z,6.10
2022-08-19T17:03:36.297Z,3.30
2022-08-19T17:06:15.807Z,4.53
2022-08-19T17:08:48.613Z,5.32
2022-08-19T17:11:18.609Z,8.98
2022-08-19T17:13:47.809Z,5.63
2022-08-19T17:16:15.632Z,9.60
2022-08-19T17:18:42.156Z,5.00
2022-08-19T17:21:08.681Z,3.28
2022-08-19T17:23:36.688Z,8.70
2022-08-19T17:26:16.871Z,6.38
2022-08-19T17:28:45.263Z,6.28
2022-08-19T17:31:12.247Z,8.77
2022-08-19T17:33:41.213Z,5.95
2022-08-19T17:36:08.715Z,7.18
2022-08-19T17:38:37.694Z,6.28
2022-08-19T17:41:06.022Z,8.10
2022-08-19T17:43:40.066Z,4.75
2022-08-19T17:46:12.065Z,7.57
2022-08-19T17:48:48.382Z,5.72
2022-08-19T17:51:21.965Z,9.68
2022-08-19T17:53:51.241Z,12.35
2022-08-19T17:56:18.687Z,8.70
2022-08-19T17:58:57.839Z,10.07
2022-08-19T18:01:30.746Z,6.43
2022-08-19T18:04:14.891Z,10.75
2022-08-19T18:06:46.538Z,5.72
2022-08-19T18:09:20.691Z,3.78
2022-08-19T18:11:52.946Z,6.95
2022-08-19T18:14:20.825Z,5.85
2022-08-19T18:16:47.376Z,5.10
2022-08-19T18:19:15.502Z,2.50
2022-08-19T18:21:42.507Z,12.05
2022-08-19T18:24:10.161Z,9.88
2022-08-19T18:26:36.912Z,7.30
2022-08-19T18:29:03.652Z,4.57
2022-08-19T18:31:31.380Z,5.15
2022-08-19T18:34:00.369Z,5.40
2022-08-19T18:36:53.383Z,6.13
2022-08-19T18:39:44.249Z,3.35
2022-08-19T18:42:35.304Z,7.95
2022-08-19T18:45:21.799Z,4.57
2022-08-19T18:48:06.659Z,3.65
2022-08-19T18:50:54.402Z,3.58
2022-08-19T18:53:23.934Z,3.85
2022-08-19T18:55:55.796Z,3.05
2022-08-19T18:58:32.398Z,5.93
2022-08-19T19:01:07.294Z,2.67
2022-08-19T19:03:34.217Z,3.53
2022-08-19T19:06:01.969Z,4.28
2022-08-19T19:08:28.613Z,1.90
2022-08-19T19:10:56.475Z,2.88
2022-08-19T19:13:23.344Z,3.22
2022-08-19T19:15:58.603Z,3.53
2022-08-19T19:18:25.263Z,2.95
2022-08-19T19:20:52.331Z,2.22
2022-08-19T19:23:20.787Z,3.85
2022-08-19T19:25:51.075Z,1.70
2022-08-19T19:28:29.245Z,2.30
2022-08-19T19:31:00.303Z,2.40
2022-08-19T19:33:30.116Z,2.92
2022-08-19T19:35:56.797Z,2.03
2022-08-19T19:38:23.641Z,4.65
2022-08-19T19:40:54.757Z,1.58
2022-08-19T19:43:24.088Z,4.28
2022-08-19T19:45:52.431Z,2.38
2022-08-19T19:48:19.038Z,5.63
2022-08-19T19:50:46.704Z,2.40
2022-08-19T19:53:23.521Z,1.85
2022-08-19T19:55:51.730Z,4.30
2022-08-19T19:58:21.217Z,2.17
2022-08-19T20:00:55.304Z,3.53
2022-08-19T20:03:23.339Z,4.30
2022-08-19T20:05:50.345Z,1.90
2022-08-19T20:08:36.094Z,1.55
2022-08-19T20:11:05.461Z,6.07
2022-08-19T20:13:33.362Z,3.97
2022-08-19T20:16:00.068Z,3.78
2022-08-19T20:18:30.204Z,2.55
2022-08-19T20:20:57.018Z,3.42
2022-08-19T20:23:23.787Z,5.85
2022-08-19T20:25:50.512Z,1.60
2022-08-19T20:28:18.074Z,2.88
2022-08-19T20:30:46.432Z,3.90
2022-08-19T20:33:14.672Z,2.88
2022-08-19T20:35:42.769Z,2.15
2022-08-19T20:38:09.554Z,4.85
2022-08-19T20:40:36.394Z,2.53
2022-08-19T20:43:07.777Z,6.07
2022-08-19T20:45:36.333Z,3.75
2022-08-19T20:48:06.383Z,2.80
2022-08-19T20:50:35.272Z,3.35
2022-08-19T20:53:10.331Z,2.80
2022-08-19T20:55:36.862Z,4.95
2022-08-19T20:58:03.909Z,4.70
2022-08-19T21:00:30.732Z,4.22
2022-08-19T21:02:57.453Z,3.50
2022-08-19T21:05:27.290Z,1.65
2022-08-19T21:07:57.731Z,6.03
2022-08-19T21:10:25.291Z,3.88
2022-08-19T21:12:53.517Z,3.33
2022-08-19T21:15:20.136Z,5.60
2022-08-19T21:17:48.698Z,3.42
2022-08-19T21:20:15.460Z,2.58
2022-08-19T21:22:42.007Z,2.75
2022-08-19T21:25:08.591Z,3.20
2022-08-19T21:27:35.143Z,2.33
2022-08-19T21:30:02.170Z,1.55
2022-08-19T21:32:28.771Z,2.15
2022-08-19T21:34:55.425Z,4.10
2022-08-19T21:37:25.153Z,2.97
2022-08-19T21:39:54.142Z,4.20
2022-08-19T21:42:21.794Z,1.88
2022-08-19T21:44:48.465Z,2.63
2022-08-19T21:47:15.497Z,1.67
2022-08-19T21:49:42.058Z,1.48
2022-08-19T21:52:08.833Z,1.90
2022-08-19T21:54:37.790Z,3.35
2022-08-19T21:57:07.082Z,3.60
2022-08-19T21:59:38.026Z,4.22
2022-08-19T22:02:19.167Z,2.47
2022-08-19T22:04:46.240Z,2.63
2022-08-19T22:07:14.376Z,4.90
2022-08-19T22:09:42.841Z,2.55
2022-08-19T22:12:11.519Z,2.13
2022-08-19T22:14:38.925Z,2.97
2022-08-19T22:17:06.239Z,6.45
2022-08-19T22:19:33.282Z,4.40
2022-08-19T22:22:00.742Z,2.22
2022-08-19T22:24:27.436Z,2.85
2022-08-19T22:26:54.049Z,2.45
2022-08-19T22:29:33.117Z,2.35
2022-08-19T22:32:17.777Z,1.67
2022-08-19T22:34:48.169Z,1.98
2022-08-19T22:37:14.828Z,3.88
2022-08-19T22:39:41.435Z,6.57
2022-08-19T22:42:08.054Z,2.13
2022-08-19T22:44:34.668Z,2.05
2022-08-19T22:47:02.300Z,6.95
2022-08-19T22:49:28.814Z,2.38
2022-08-19T22:52:14.014Z,2.63
2022-08-19T22:54:40.537Z,6.85
2022-08-19T22:57:07.062Z,3.08
2022-08-19T22:59:33.595Z,3.85
2022-08-19T23:02:00.131Z,8.73
2022-08-19T23:04:26.681Z,5.30
2022-08-19T23:06:53.476Z,7.13
2022-08-19T23:09:20.149Z,5.38
2022-08-19T23:11:50.016Z,4.40
2022-08-19T23:14:17.603Z,3.28
2022-08-19T23:16:50.430Z,2.22
2022-08-19T23:19:17.411Z,3.17
2022-08-19T23:21:43.994Z,11.50
2022-08-19T23:24:11.501Z,2.72
2022-08-19T23:26:38.053Z,11.93
2022-08-19T23:29:24.135Z,3.45
2022-08-19T23:31:50.822Z,5.13
2022-08-19T23:34:18.084Z,5.05
2022-08-19T23:36:44.587Z,3.50
2022-08-19T23:39:11.067Z,6.05
2022-08-19T23:41:37.587Z,14.05
2022-08-19T23:44:04.245Z,10.05
2022-08-19T23:46:30.945Z,3.80
2022-08-19T23:49:08.755Z,11.32
2022-08-19T23:51:35.270Z,7.57
2022-08-19T23:54:01.779Z,2.95
2022-08-19T23:56:28.341Z,4.15
2022-08-19T23:58:55.150Z,3.55
